Time;durP1;ratioP1;P1;durP2;ratioP2;P2;SDS_P1;SDS_P2;PMS_P1;PMS_P2;Temp;Humidity;BMP_temperature;BMP_pressure;BME280_temperature;BME280_humidity;BME280_pressure;Samples;Min_cycle;Max_cycle;Signal;HPM_P1;HPM_P2
2023/02/27 00:00:17;;;;;;;6.60;4.90;;;;;;;4.30;68.93;100617.54;108138;1254;72044;-64
2023/02/27 00:02:50;;;;;;;7.80;5.70;;;;;;;4.29;68.85;100617.67;108108;1254;75240;-64
2023/02/27 00:05:21;;;;;;;9.50;6.00;;;;;;;4.27;68.88;100618.65;108076;1254;61129;-65
2023/02/27 00:07:50;;;;;;;7.80;5.90;;;;;;;4.26;68.86;100611.54;108043;1254;61597;-67
2023/02/27 00:10:20;;;;;;;8.70;5.90;;;;;;;4.25;69.00;100614.93;108075;1254;75818;-65
2023/02/27 00:12:51;;;;;;;7.30;5.70;;;;;;;4.24;68.90;100625.80;108149;1254;71487;-65
2023/02/27 00:15:19;;;;;;;8.10;6.00;;;;;;;4.22;68.87;100630.71;108085;1254;72658;-64
2023/02/27 00:17:57;;;;;;;8.20;5.60;;;;;;;4.22;68.88;100626.59;108102;1254;62387;-64
2023/02/27 00:20:28;;;;;;;7.40;5.40;;;;;;;4.23;68.73;100625.77;108146;1253;61136;-64
2023/02/27 00:22:57;;;;;;;7.30;5.60;;;;;;;4.18;68.53;100633.90;108079;1254;73527;-65
2023/02/27 00:25:32;;;;;;;8.10;6.50;;;;;;;4.13;68.46;100636.52;108103;1254;72806;-64
2023/02/27 00:28:04;;;;;;;6.30;5.10;;;;;;;4.11;68.23;100642.74;108126;1254;72349;-64
2023/02/27 00:30:37;;;;;;;7.90;5.80;;;;;;;4.08;68.02;100651.11;108238;1254;61218;-65
2023/02/27 00:33:10;;;;;;;9.00;6.20;;;;;;;4.05;67.80;100656.98;108307;1253;59961;-64
2023/02/27 00:35:44;;;;;;;7.60;5.60;;;;;;;4.03;67.58;100662.12;108293;1254;75779;-65
2023/02/27 00:38:51;;;;;;;7.90;5.90;;;;;;;4.00;67.37;100664.11;108063;1254;73836;-66
2023/02/27 00:41:20;;;;;;;10.00;6.20;;;;;;;3.99;67.42;100666.81;107855;1254;73064;-64
2023/02/27 00:43:48;;;;;;;7.90;5.80;;;;;;;3.97;67.21;100664.05;108062;1254;61212;-64
2023/02/27 00:46:18;;;;;;;8.20;6.20;;;;;;;3.96;67.02;100669.55;108094;1254;61180;-67
2023/02/27 00:48:53;;;;;;;7.30;5.50;;;;;;;3.95;67.06;100680.61;108115;1254;74396;-65
2023/02/27 00:51:21;;;;;;;9.30;7.10;;;;;;;3.93;66.86;100688.64;108181;1254;72913;-64
2023/02/27 00:53:50;;;;;;;9.30;6.90;;;;;;;3.90;66.71;100694.63;108134;1255;71767;-64
2023/02/27 00:56:19;;;;;;;10.10;7.20;;;;;;;3.86;66.64;100694.14;108107;1254;61109;-65
2023/02/27 00:58:48;;;;;;;9.20;6.90;;;;;;;3.83;66.61;100703.22;107939;1254;61087;-64
2023/02/27 01:01:16;;;;;;;9.20;6.20;;;;;;;3.80;66.52;100706.11;108156;1254;75349;-65
2023/02/27 01:03:45;;;;;;;8.40;7.10;;;;;;;3.75;66.47;100708.24;108155;1254;73143;-64
2023/02/27 01:06:13;;;;;;;9.90;7.80;;;;;;;3.70;66.21;100712.11;108120;1257;73579;-64
2023/02/27 01:08:42;;;;;;;10.20;7.50;;;;;;;3.63;65.93;100719.38;108125;1254;61086;-63
2023/02/27 01:11:12;;;;;;;10.60;8.00;;;;;;;3.56;65.60;100729.87;108113;1254;61087;-64
2023/02/27 01:13:40;;;;;;;10.10;7.60;;;;;;;3.51;65.45;100731.98;107994;1253;74853;-64
2023/02/27 01:16:09;;;;;;;9.20;6.90;;;;;;;3.48;65.17;100736.21;108111;1253;72979;-64
2023/02/27 01:18:39;;;;;;;8.70;6.80;;;;;;;3.45;64.53;100739.68;108119;1253;71090;-64
2023/02/27 01:21:07;;;;;;;8.40;6.50;;;;;;;3.40;64.04;100743.55;108130;1257;61180;-64
2023/02/27 01:23:36;;;;;;;7.90;5.60;;;;;;;3.34;63.75;100746.88;108057;1254;61141;-65
2023/02/27 01:26:04;;;;;;;8.20;5.50;;;;;;;3.28;63.17;100749.92;107987;1259;73647;-65
2023/02/27 01:28:34;;;;;;;6.70;5.00;;;;;;;3.24;62.86;100752.29;108122;1254;71950;-64
2023/02/27 01:31:02;;;;;;;8.20;5.60;;;;;;;3.19;62.37;100747.17;108077;1254;72950;-65
2023/02/27 01:33:32;;;;;;;7.20;5.60;;;;;;;3.12;62.08;100757.64;108134;1254;61093;-64
2023/02/27 01:36:01;;;;;;;7.70;5.40;;;;;;;3.06;61.86;100750.58;108047;1254;61905;-65
2023/02/27 01:38:30;;;;;;;7.80;5.50;;;;;;;3.00;61.59;100750.37;108087;1254;75633;-63
2023/02/27 01:41:00;;;;;;;7.90;5.10;;;;;;;2.95;61.52;100750.65;108079;1254;73699;-64
2023/02/27 01:43:31;;;;;;;8.50;5.70;;;;;;;2.91;61.38;100745.59;108129;1254;72129;-64
2023/02/27 01:46:03;;;;;;;8.50;5.90;;;;;;;2.86;61.38;100748.45;108141;1254;61415;-65
2023/02/27 01:48:33;;;;;;;7.90;5.80;;;;;;;2.81;61.39;100744.05;108137;1254;60988;-64
2023/02/27 01:51:17;;;;;;;9.00;6.20;;;;;;;2.74;61.48;100742.23;108146;1254;75440;-65
2023/02/27 01:53:48;;;;;;;9.00;5.60;;;;;;;2.68;61.73;100741.92;108120;1254;72980;-65
2023/02/27 01:56:21;;;;;;;7.90;5.10;;;;;;;2.65;61.90;100743.96;108145;1254;71852;-64
2023/02/27 01:58:50;;;;;;;8.90;5.60;;;;;;;2.63;62.02;100749.76;107883;1256;61879;-64
2023/02/27 02:01:19;;;;;;;8.10;5.60;;;;;;;2.61;61.96;100753.77;108022;1255;61732;-64
2023/02/27 02:04:10;;;;;;;8.50;6.10;;;;;;;2.58;61.92;100748.48;108066;1254;74532;-65
2023/02/27 02:06:40;;;;;;;8.60;6.00;;;;;;;2.54;62.10;100751.77;108055;1254;73892;-64
2023/02/27 02:09:09;;;;;;;8.40;6.10;;;;;;;2.53;62.07;100751.85;107934;1254;72532;-65
2023/02/27 02:11:37;;;;;;;8.80;5.80;;;;;;;2.52;62.11;100754.73;107885;1254;61247;-64
2023/02/27 02:14:09;;;;;;;8.60;6.00;;;;;;;2.52;62.13;100757.80;108124;1254;61150;-63
2023/02/27 02:17:11;;;;;;;8.80;6.30;;;;;;;2.51;62.31;100762.34;108088;1254;75623;-63
2023/02/27 02:20:11;;;;;;;8.40;6.00;;;;;;;2.50;62.39;100764.20;107872;1254;73040;-65
2023/02/27 02:23:13;;;;;;;9.50;6.40;;;;;;;2.49;62.50;100771.45;108108;1259;71861;-63
2023/02/27 02:26:49;;;;;;;9.80;6.80;;;;;;;2.49;62.79;100780.27;108035;1254;62194;-65
2023/02/27 02:29:29;;;;;;;9.10;6.70;;;;;;;2.48;62.76;100784.31;107418;1263;61376;-64
2023/02/27 02:32:10;;;;;;;9.80;6.50;;;;;;;2.48;63.00;100787.08;108072;1254;75482;-65
2023/02/27 02:35:04;;;;;;;10.50;6.80;;;;;;;2.47;62.93;100790.33;108243;1254;71568;-64
2023/02/27 02:37:42;;;;;;;9.00;6.40;;;;;;;2.47;63.01;100797.04;108189;1254;71827;-64
2023/02/27 02:40:26;;;;;;;8.60;6.10;;;;;;;2.47;62.94;100798.83;108054;1254;61128;-64
2023/02/27 02:43:07;;;;;;;10.60;6.10;;;;;;;2.47;63.14;100801.68;107912;1254;60154;-64
2023/02/27 02:45:51;;;;;;;8.80;6.60;;;;;;;2.49;63.16;100806.70;108068;1254;75117;-64
2023/02/27 02:48:26;;;;;;;9.80;7.00;;;;;;;2.49;62.94;100806.63;108063;1254;73830;-64
2023/02/27 02:50:58;;;;;;;9.90;6.40;;;;;;;2.48;62.91;100810.65;107866;1254;72113;-64
2023/02/27 02:53:33;;;;;;;9.40;6.40;;;;;;;2.46;62.75;100812.83;108078;1254;60793;-64
2023/02/27 02:56:25;;;;;;;8.70;5.80;;;;;;;2.46;62.92;100815.94;108183;1254;61125;-64
2023/02/27 02:59:09;;;;;;;9.50;6.30;;;;;;;2.44;62.81;100818.61;108143;1254;74958;-64
2023/02/27 03:01:48;;;;;;;10.00;6.90;;;;;;;2.42;62.89;100818.57;108122;1254;74465;-63
2023/02/27 03:04:26;;;;;;;9.30;7.00;;;;;;;2.38;62.70;100821.88;108036;1254;73161;-63
2023/02/27 03:07:19;;;;;;;9.10;6.10;;;;;;;2.37;62.85;100831.02;108064;1254;61308;-64
2023/02/27 03:10:02;;;;;;;8.50;6.00;;;;;;;2.34;62.78;100834.88;108027;1254;61427;-63
2023/02/27 03:12:32;;;;;;;8.10;6.10;;;;;;;2.32;62.79;100833.36;108047;1254;74876;-63
2023/02/27 03:15:07;;;;;;;9.00;5.90;;;;;;;2.32;62.82;100835.64;107879;1254;73060;-63
2023/02/27 03:17:59;;;;;;;9.60;6.60;;;;;;;2.32;62.70;100842.98;108012;1254;72419;-63
2023/02/27 03:20:41;;;;;;;9.20;6.30;;;;;;;2.30;62.36;100843.34;107933;1256;61204;-63
2023/02/27 03:23:16;;;;;;;9.50;6.20;;;;;;;2.25;62.44;100847.27;107937;1256;61179;-63
2023/02/27 03:25:47;;;;;;;10.30;6.40;;;;;;;2.23;62.49;100851.77;107817;1255;74595;-63
2023/02/27 03:28:20;;;;;;;9.00;6.00;;;;;;;2.21;62.45;100854.77;107806;1254;73396;-63
2023/02/27 03:30:54;;;;;;;9.80;6.80;;;;;;;2.19;62.57;100857.55;108063;1254;72137;-63
2023/02/27 03:33:32;;;;;;;8.90;6.10;;;;;;;2.18;62.49;100855.52;108035;1254;61232;-63
2023/02/27 03:36:20;;;;;;;9.60;6.30;;;;;;;2.20;62.45;100857.88;108083;1254;61328;-63
2023/02/27 03:39:27;;;;;;;8.80;5.90;;;;;;;2.22;62.43;100861.58;108124;1254;73891;-64
2023/02/27 03:42:10;;;;;;;10.10;6.60;;;;;;;2.23;62.52;100864.27;108049;1254;73585;-63
2023/02/27 03:44:59;;;;;;;9.80;6.60;;;;;;;2.25;62.25;100862.08;108048;1253;73791;-64
2023/02/27 03:47:28;;;;;;;6.70;4.80;;;;;;;2.24;61.93;100866.39;108136;1253;61940;-64
2023/02/27 03:49:57;;;;;;;9.10;6.40;;;;;;;2.24;61.99;100870.31;108063;1253;61088;-65
2023/02/27 03:52:25;;;;;;;8.80;6.20;;;;;;;2.20;61.81;100869.87;108133;1253;74745;-63
2023/02/27 03:55:06;;;;;;;9.00;6.40;;;;;;;2.18;62.01;100871.23;108146;1253;73705;-63
2023/02/27 03:57:35;;;;;;;9.90;6.70;;;;;;;2.13;61.76;100866.52;107968;1253;73343;-63
2023/02/27 04:00:11;;;;;;;8.70;5.90;;;;;;;2.12;61.97;100867.55;107950;1253;61871;-63
2023/02/27 04:02:49;;;;;;;10.00;6.40;;;;;;;2.09;61.87;100871.27;107994;1253;61342;-63
2023/02/27 04:05:20;;;;;;;9.70;6.50;;;;;;;2.05;61.99;100877.48;108133;1253;75219;-63
2023/02/27 04:08:09;;;;;;;10.10;6.30;;;;;;;2.02;62.14;100876.66;107906;1253;72224;-63
2023/02/27 04:10:52;;;;;;;9.70;6.80;;;;;;;1.99;62.20;100880.29;108158;1253;73010;-63
2023/02/27 04:13:58;;;;;;;9.10;6.50;;;;;;;1.98;62.04;100881.24;108140;1253;61314;-63
2023/02/27 04:16:41;;;;;;;10.90;7.00;;;;;;;1.98;62.23;100883.73;108132;1254;59984;-64
2023/02/27 04:19:28;;;;;;;9.20;5.80;;;;;;;1.96;62.19;100883.71;108141;1257;75686;-64
2023/02/27 04:22:30;;;;;;;9.40;6.10;;;;;;;1.95;62.30;100884.16;108132;1254;73041;-64
2023/02/27 04:25:05;;;;;;;9.10;5.90;;;;;;;1.94;62.43;100892.98;107949;1256;74184;-63
2023/02/27 04:27:57;;;;;;;10.70;7.00;;;;;;;1.93;62.37;100898.64;107959;1253;61124;-64
2023/02/27 04:30:41;;;;;;;10.50;6.80;;;;;;;1.91;62.41;100899.29;108270;1253;61158;-65
2023/02/27 04:33:32;;;;;;;10.50;6.40;;;;;;;1.91;62.40;100901.27;108219;1253;73646;-64
2023/02/27 04:36:16;;;;;;;11.50;7.40;;;;;;;1.89;62.25;100906.67;107980;1254;74001;-64
2023/02/27 04:38:48;;;;;;;11.10;7.20;;;;;;;1.88;62.16;100911.98;108089;1254;71624;-64
2023/02/27 04:41:20;;;;;;;11.60;6.90;;;;;;;1.87;62.21;100914.05;108094;1254;61832;-64
2023/02/27 04:43:49;;;;;;;10.50;7.10;;;;;;;1.86;62.36;100917.84;108157;1256;61099;-65
2023/02/27 04:46:18;;;;;;;11.40;6.90;;;;;;;1.87;62.14;100919.46;108027;1254;73941;-63
2023/02/27 04:49:21;;;;;;;10.40;7.10;;;;;;;1.89;62.26;100921.19;108152;1254;72351;-64
2023/02/27 04:51:55;;;;;;;10.50;6.70;;;;;;;1.91;62.25;100928.98;108120;1258;71969;-63
2023/02/27 04:54:46;;;;;;;10.80;7.10;;;;;;;1.92;62.19;100931.02;108076;1254;61468;-64
2023/02/27 04:57:22;;;;;;;10.00;7.00;;;;;;;1.90;62.15;100937.36;108064;1254;61128;-64
2023/02/27 04:59:52;;;;;;;10.80;6.80;;;;;;;1.89;62.10;100943.11;108059;1254;75434;-64
2023/02/27 05:02:23;;;;;;;9.60;6.90;;;;;;;1.91;62.16;100947.11;108086;1255;73347;-64
2023/02/27 05:04:56;;;;;;;10.30;6.80;;;;;;;1.91;62.02;100952.00;108047;1258;72141;-64
2023/02/27 05:07:33;;;;;;;9.80;6.50;;;;;;;1.92;61.93;100954.08;108079;1255;61958;-63
2023/02/27 05:10:08;;;;;;;10.50;6.80;;;;;;;1.93;61.83;100958.95;108027;1254;61255;-64
2023/02/27 05:12:43;;;;;;;9.60;6.10;;;;;;;1.95;61.76;100963.84;108050;1259;74858;-64
2023/02/27 05:15:14;;;;;;;9.70;6.70;;;;;;;1.95;61.76;100967.68;108081;1254;74162;-63
2023/02/27 05:17:54;;;;;;;11.60;6.60;;;;;;;1.94;61.76;100976.60;108060;1258;70791;-64
2023/02/27 05:20:23;;;;;;;11.30;7.50;;;;;;;1.95;61.69;100980.81;108026;1254;61704;-68
2023/02/27 05:22:58;;;;;;;10.30;7.20;;;;;;;1.97;61.65;100986.58;108089;1254;60383;-65
2023/02/27 05:25:35;;;;;;;10.20;6.60;;;;;;;2.00;61.45;100991.98;108056;1254;75850;-64
2023/02/27 05:28:21;;;;;;;9.60;6.70;;;;;;;2.02;61.25;100991.77;108134;1254;72522;-64
2023/02/27 05:31:20;;;;;;;10.20;6.60;;;;;;;2.06;61.18;100993.11;108278;1254;71891;-63
2023/02/27 05:34:25;;;;;;;11.20;7.10;;;;;;;2.14;61.10;100997.27;107938;1256;60993;-63
2023/02/27 05:37:03;;;;;;;9.70;6.30;;;;;;;2.18;61.12;100999.77;107998;1257;61893;-64
2023/02/27 05:39:33;;;;;;;10.60;7.10;;;;;;;2.19;60.66;100998.80;108005;1256;75745;-63
2023/02/27 05:42:06;;;;;;;10.30;6.80;;;;;;;2.19;60.47;101001.77;108195;1253;72570;-63
2023/02/27 05:44:38;;;;;;;11.10;6.90;;;;;;;2.23;60.61;101002.11;107893;1256;72027;-64
2023/02/27 05:47:09;;;;;;;;;;;;;;;2.28;60.43;101002.88;107995;1256;61097;-63
2023/02/27 05:49:41;;;;;;;10.00;6.20;;;;;;;2.34;60.23;101004.44;107995;1255;61335;-65
2023/02/27 05:52:11;;;;;;;10.80;7.20;;;;;;;2.38;60.03;101002.75;108026;1256;75507;-64
2023/02/27 05:55:03;;;;;;;10.20;6.90;;;;;;;2.44;59.96;101005.64;108067;1254;72936;-65
2023/02/27 05:57:42;;;;;;;10.40;6.90;;;;;;;2.51;59.31;101008.79;108096;1256;72176;-64
2023/02/27 06:00:41;;;;;;;10.30;6.70;;;;;;;2.56;59.56;101011.33;108117;1256;61186;-63
2023/02/27 06:03:10;;;;;;;10.80;7.10;;;;;;;2.64;59.11;101013.73;107881;1255;61210;-64
2023/02/27 06:05:38;;;;;;;10.10;6.30;;;;;;;2.67;58.83;101017.60;107745;1256;74918;-63
2023/02/27 06:08:07;;;;;;;9.70;5.90;;;;;;;2.68;58.70;101019.55;107803;1256;72499;-64
2023/02/27 06:10:42;;;;;;;10.20;6.60;;;;;;;2.65;58.39;101018.04;108045;1256;72628;-64
2023/02/27 06:13:11;;;;;;;9.80;6.40;;;;;;;2.62;58.33;101017.80;108049;1256;61239;-66
2023/02/27 06:15:39;;;;;;;12.90;8.20;;;;;;;2.61;58.28;101015.70;108060;1253;61311;-64
2023/02/27 06:18:12;;;;;;;11.90;7.80;;;;;;;2.59;58.41;101027.48;108236;1253;75839;-64
2023/02/27 06:20:41;;;;;;;11.50;7.80;;;;;;;2.62;58.40;101035.14;108270;1253;70953;-64
2023/02/27 06:23:10;;;;;;;11.40;6.80;;;;;;;2.64;58.19;101034.99;108187;1253;72212;-64
2023/02/27 06:25:40;;;;;;;11.60;7.10;;;;;;;2.64;58.24;101027.84;108175;1253;61233;-63
2023/02/27 06:28:09;;;;;;;11.40;6.80;;;;;;;2.64;58.05;101029.08;108139;1256;61324;-64
2023/02/27 06:30:39;;;;;;;11.10;6.60;;;;;;;2.65;57.99;101027.81;108033;1256;75604;-63
2023/02/27 06:33:08;;;;;;;10.00;7.10;;;;;;;2.69;58.08;101024.75;108086;1255;72080;-63
2023/02/27 06:35:37;;;;;;;10.10;7.00;;;;;;;2.71;57.87;101020.61;108047;1254;72935;-63
2023/02/27 06:38:05;;;;;;;9.90;6.60;;;;;;;2.73;57.95;101026.16;108096;1254;61171;-65
2023/02/27 06:40:34;;;;;;;9.30;6.10;;;;;;;2.75;57.74;101030.67;108109;1258;61936;-65
2023/02/27 06:43:03;;;;;;;9.30;6.20;;;;;;;2.75;57.85;101033.99;108063;1254;74672;-63
2023/02/27 06:45:32;;;;;;;8.30;5.60;;;;;;;2.81;57.81;101041.71;108052;1254;70891;-64
2023/02/27 06:48:00;;;;;;;10.80;7.00;;;;;;;2.91;57.73;101042.79;108063;1259;73947;-64
2023/02/27 06:50:29;;;;;;;10.70;7.20;;;;;;;2.95;57.54;101045.89;107974;1254;61100;-63
2023/02/27 06:52:57;;;;;;;9.10;5.60;;;;;;;2.91;57.38;101053.17;108045;1255;61113;-64
2023/02/27 06:55:26;;;;;;;9.90;6.50;;;;;;;2.88;57.30;101061.88;108070;1255;74730;-65
2023/02/27 06:57:54;;;;;;;11.70;6.90;;;;;;;2.86;57.21;101059.48;108068;1257;72133;-64
2023/02/27 07:00:23;;;;;;;10.10;6.40;;;;;;;2.88;57.34;101054.10;108046;1254;71747;-64
2023/02/27 07:02:52;;;;;;;12.20;7.50;;;;;;;2.93;57.43;101055.77;108040;1254;61203;-64
2023/02/27 07:05:22;;;;;;;9.90;6.20;;;;;;;2.99;57.31;101062.36;108028;1256;61093;-64
2023/02/27 07:07:51;;;;;;;10.40;7.30;;;;;;;3.02;57.21;101064.93;108034;1255;74968;-65
2023/02/27 07:10:19;;;;;;;11.10;7.20;;;;;;;3.06;57.21;101066.41;107940;1254;72491;-65
2023/02/27 07:12:48;;;;;;;11.30;7.20;;;;;;;3.06;56.85;101067.63;108060;1254;70349;-63
2023/02/27 07:15:17;;;;;;;13.10;8.00;;;;;;;3.01;56.51;101067.73;108090;1255;61075;-66
2023/02/27 07:17:46;;;;;;;14.60;9.40;;;;;;;2.96;56.33;101075.29;108066;1254;61111;-64
2023/02/27 07:20:18;;;;;;;17.20;10.80;;;;;;;2.89;56.45;101082.92;108068;1254;75967;-65
2023/02/27 07:22:47;;;;;;;15.50;9.70;;;;;;;2.86;56.57;101086.58;108083;1256;72743;-64
2023/02/27 07:25:15;;;;;;;14.10;9.30;;;;;;;2.87;56.63;101091.84;108016;1254;72265;-64
2023/02/27 07:27:44;;;;;;;12.50;7.70;;;;;;;2.87;56.31;101096.83;107983;1256;61103;-64
2023/02/27 07:30:14;;;;;;;13.60;8.90;;;;;;;2.88;56.35;101102.80;108225;1253;61324;-64
2023/02/27 07:32:42;;;;;;;11.20;7.70;;;;;;;2.90;56.42;101099.05;108228;1253;74450;-64
2023/02/27 07:35:11;;;;;;;11.30;7.10;;;;;;;2.90;56.27;101097.18;108174;1253;72267;-63
2023/02/27 07:37:39;;;;;;;10.90;7.20;;;;;;;2.92;56.45;101093.77;108228;1253;73132;-63
2023/02/27 07:40:11;;;;;;;10.80;7.00;;;;;;;2.96;56.35;101086.34;108237;1253;61448;-64
2023/02/27 07:42:39;;;;;;;12.10;7.70;;;;;;;3.00;56.31;101084.33;108182;1254;61189;-62
2023/02/27 07:45:08;;;;;;;10.90;7.00;;;;;;;3.00;56.20;101079.82;108064;1256;74638;-64
2023/02/27 07:47:38;;;;;;;10.40;6.70;;;;;;;3.00;56.25;101081.40;108111;1256;73631;-64
2023/02/27 07:50:08;;;;;;;10.40;6.40;;;;;;;2.98;56.02;101088.38;108105;1259;71488;-64
2023/02/27 07:52:42;;;;;;;9.40;6.20;;;;;;;2.87;55.98;101089.93;108072;1254;61368;-64
2023/02/27 07:55:12;;;;;;;11.20;7.00;;;;;;;2.79;56.15;101089.67;108104;1256;61318;-65
2023/02/27 07:57:43;;;;;;;11.60;8.00;;;;;;;2.75;56.35;101095.65;108136;1254;73959;-63
2023/02/27 08:00:13;;;;;;;10.10;7.20;;;;;;;2.75;56.32;101092.31;108148;1255;72518;-64
2023/02/27 08:02:41;;;;;;;10.00;7.10;;;;;;;2.76;56.35;101093.55;108115;1254;71755;-63
2023/02/27 08:05:10;;;;;;;11.60;7.20;;;;;;;2.81;56.36;101089.20;108053;1259;61100;-64
2023/02/27 08:07:39;;;;;;;10.50;7.50;;;;;;;2.87;56.27;101088.05;108119;1254;60632;-63
2023/02/27 08:10:11;;;;;;;10.80;7.20;;;;;;;2.92;56.32;101086.42;108078;1256;75905;-64
2023/02/27 08:12:39;;;;;;;10.90;7.80;;;;;;;2.99;56.32;101091.34;108058;1256;74011;-63
2023/02/27 08:15:08;;;;;;;11.70;7.40;;;;;;;3.08;56.41;101094.88;108061;1255;73089;-64
2023/02/27 08:17:37;;;;;;;9.20;6.30;;;;;;;3.20;56.21;101101.81;108052;1254;61162;-67
2023/02/27 08:20:12;;;;;;;10.00;6.80;;;;;;;3.30;55.92;101103.98;108059;1256;61169;-65
2023/02/27 08:22:41;;;;;;;10.40;7.00;;;;;;;3.39;55.50;101105.02;108079;1254;75852;-66
2023/02/27 08:25:12;;;;;;;10.50;7.00;;;;;;;3.47;55.54;101107.92;108029;1254;73003;-65
2023/02/27 08:27:41;;;;;;;9.70;6.60;;;;;;;3.59;55.07;101106.35;108058;1254;73891;-65
2023/02/27 08:30:11;;;;;;;10.10;7.60;;;;;;;3.65;54.63;101110.08;108086;1254;61108;-62
2023/02/27 08:32:39;;;;;;;11.70;7.30;;;;;;;3.69;54.27;101117.85;108073;1255;61222;-63
2023/02/27 08:35:08;;;;;;;10.30;6.20;;;;;;;3.71;54.09;101119.39;108146;1253;73807;-64
2023/02/27 08:37:37;;;;;;;8.80;5.90;;;;;;;3.66;53.54;101121.29;108244;1253;72748;-63
2023/02/27 08:40:07;;;;;;;10.90;7.10;;;;;;;3.61;53.39;101117.16;108202;1253;70906;-63
2023/02/27 08:42:39;;;;;;;9.00;6.40;;;;;;;3.58;53.50;101114.19;108038;1253;61135;-64
2023/02/27 08:45:10;;;;;;;8.60;6.00;;;;;;;3.59;53.41;101113.52;108215;1253;61234;-62
2023/02/27 08:47:41;;;;;;;9.30;6.30;;;;;;;3.65;53.53;101114.59;108228;1253;74902;-64
2023/02/27 08:50:14;;;;;;;9.50;6.60;;;;;;;3.68;53.29;101116.75;107925;1254;73955;-63
2023/02/27 08:52:42;;;;;;;8.70;6.10;;;;;;;3.66;53.18;101120.89;107995;1256;72104;-64
2023/02/27 08:55:11;;;;;;;9.10;5.80;;;;;;;3.64;53.16;101119.34;107978;1256;61127;-63
2023/02/27 08:57:40;;;;;;;8.10;5.90;;;;;;;3.70;53.37;101117.69;107983;1256;61107;-64
2023/02/27 09:00:09;;;;;;;9.10;6.30;;;;;;;3.85;53.34;101116.56;107967;1256;75544;-64
2023/02/27 09:02:38;;;;;;;9.00;5.60;;;;;;;3.99;52.85;101112.58;108006;1256;73212;-63
2023/02/27 09:05:07;;;;;;;8.80;6.10;;;;;;;4.12;52.72;101119.70;107968;1255;71207;-64
2023/02/27 09:07:36;;;;;;;8.50;6.00;;;;;;;4.25;52.16;101114.54;107977;1255;61143;-62
2023/02/27 09:10:06;;;;;;;8.60;6.20;;;;;;;4.29;51.71;101111.54;108062;1254;61119;-63
2023/02/27 09:12:36;;;;;;;8.70;6.50;;;;;;;4.30;51.74;101107.02;108113;1255;72421;-64
2023/02/27 09:15:14;;;;;;;9.80;6.50;;;;;;;4.33;51.68;101100.23;108092;1254;71786;-64
2023/02/27 09:17:42;;;;;;;8.80;6.30;;;;;;;4.40;51.59;101100.73;108069;1254;73659;-63
2023/02/27 09:20:11;;;;;;;10.30;6.10;;;;;;;4.48;51.72;101094.87;108034;1254;61228;-63
2023/02/27 09:22:40;;;;;;;8.70;5.80;;;;;;;4.63;51.30;101099.63;108093;1254;61270;-63
2023/02/27 09:25:11;;;;;;;8.40;6.10;;;;;;;4.76;50.98;101105.65;108070;1256;74146;-66
2023/02/27 09:27:41;;;;;;;7.80;5.50;;;;;;;4.88;50.68;101109.06;108185;1254;72571;-64
2023/02/27 09:30:13;;;;;;;8.40;6.30;;;;;;;4.96;50.40;101110.84;108175;1257;72950;-64
2023/02/27 09:32:42;;;;;;;8.40;5.80;;;;;;;5.02;50.19;101107.58;108194;1253;61246;-65
2023/02/27 09:35:12;;;;;;;7.00;5.30;;;;;;;5.08;50.28;101106.95;108201;1253;61140;-63
2023/02/27 09:37:42;;;;;;;8.70;6.00;;;;;;;5.17;49.79;101106.40;108004;1260;75618;-65
2023/02/27 09:40:24;;;;;;;8.30;6.20;;;;;;;5.23;49.62;101111.68;108221;1254;71897;-64
2023/02/27 09:42:56;;;;;;;7.40;5.20;;;;;;;5.24;49.33;101107.56;108080;1254;73558;-64
2023/02/27 09:45:27;;;;;;;8.70;6.30;;;;;;;5.23;49.06;101113.93;108084;1255;61202;-64
2023/02/27 09:48:31;;;;;;;8.10;6.00;;;;;;;5.26;49.29;101113.23;108071;1257;61096;-64
2023/02/27 09:50:59;;;;;;;8.10;5.70;;;;;;;5.37;49.11;101114.48;108013;1254;74555;-64
2023/02/27 09:53:40;;;;;;;7.60;5.60;;;;;;;5.40;48.93;101116.48;107980;1254;73386;-64
2023/02/27 09:56:25;;;;;;;7.90;5.40;;;;;;;5.43;48.95;101117.36;108061;1256;72290;-63
2023/02/27 09:58:54;;;;;;;7.60;5.60;;;;;;;5.51;48.87;101119.25;107976;1256;61201;-63
2023/02/27 10:01:39;;;;;;;6.90;4.90;;;;;;;5.60;48.85;101118.04;108076;1259;60644;-64
2023/02/27 10:04:26;;;;;;;7.80;5.70;;;;;;;5.66;48.35;101122.95;108067;1259;73508;-63
2023/02/27 10:07:15;;;;;;;7.00;5.30;;;;;;;5.63;48.03;101118.92;108119;1256;73725;-63
2023/02/27 10:09:57;;;;;;;11.60;6.80;;;;;;;5.57;47.98;101119.35;108075;1254;73756;-65
2023/02/27 10:12:31;;;;;;;8.20;5.60;;;;;;;5.57;48.46;101119.91;108083;1256;61075;-64
2023/02/27 10:15:15;;;;;;;8.60;5.50;;;;;;;5.67;48.33;101122.57;108062;1254;60422;-64
2023/02/27 10:17:48;;;;;;;7.50;5.20;;;;;;;5.69;48.02;101123.58;107988;1259;73871;-63
2023/02/27 10:20:27;;;;;;;8.00;6.20;;;;;;;5.68;48.01;101122.48;108076;1254;72001;-64
2023/02/27 10:22:58;;;;;;;7.90;5.60;;;;;;;5.71;48.34;101129.16;108085;1259;72562;-64
2023/02/27 10:25:27;;;;;;;8.40;6.10;;;;;;;5.77;48.19;101131.04;108107;1254;61268;-64
2023/02/27 10:28:07;;;;;;;8.50;5.90;;;;;;;5.75;47.95;101130.26;108162;1254;61091;-64
2023/02/27 10:30:36;;;;;;;7.80;5.50;;;;;;;5.72;47.98;101135.80;108333;1256;74167;-63
2023/02/27 10:33:34;;;;;;;9.00;6.50;;;;;;;5.66;48.02;101139.50;104322;1253;5216310;-64
2023/02/27 10:36:11;;;;;;;7.40;5.40;;;;;;;5.59;48.22;101141.85;108215;1257;73365;-64
2023/02/27 10:39:15;;;;;;;7.00;5.20;;;;;;;5.56;48.55;101143.52;107955;1255;61160;-64
2023/02/27 10:41:44;;;;;;;8.30;5.90;;;;;;;5.60;48.43;101145.08;107992;1260;61820;-63
2023/02/27 10:44:14;;;;;;;9.20;6.50;;;;;;;5.64;48.35;101143.45;107999;1260;75611;-64
2023/02/27 10:46:43;;;;;;;7.70;5.50;;;;;;;5.72;48.41;101142.93;108160;1253;71442;-63
2023/02/27 10:49:19;;;;;;;8.00;5.20;;;;;;;5.76;48.39;101142.75;108142;1258;72281;-63
2023/02/27 10:52:08;;;;;;;8.50;6.20;;;;;;;5.73;48.10;101136.57;107967;1258;61219;-63
2023/02/27 10:54:37;;;;;;;9.70;6.50;;;;;;;5.67;48.04;101137.25;107985;1260;61270;-64
2023/02/27 10:57:18;;;;;;;8.80;5.80;;;;;;;5.64;48.39;101132.21;108056;1257;75596;-64
2023/02/27 10:59:52;;;;;;;8.20;5.40;;;;;;;5.62;48.21;101130.19;107788;1256;72352;-64
2023/02/27 11:02:23;;;;;;;8.90;6.00;;;;;;;5.56;48.33;101128.85;108023;1255;72973;-64
2023/02/27 11:04:56;;;;;;;8.50;6.00;;;;;;;5.52;48.55;101130.45;107983;1260;61139;-65
2023/02/27 11:07:36;;;;;;;7.50;5.50;;;;;;;5.52;48.56;101132.67;108122;1254;61082;-65
2023/02/27 11:10:15;;;;;;;8.30;5.90;;;;;;;5.51;48.67;101132.91;108144;1254;74214;-65
2023/02/27 11:13:03;;;;;;;7.60;5.20;;;;;;;5.47;48.70;101133.29;108137;1259;73662;-63
2023/02/27 11:15:35;;;;;;;8.40;6.10;;;;;;;5.39;48.83;101130.09;108064;1255;72911;-63
2023/02/27 11:18:19;;;;;;;7.90;5.50;;;;;;;5.36;49.10;101135.08;108110;1260;61657;-65
2023/02/27 11:20:49;;;;;;;8.70;5.70;;;;;;;5.38;49.15;101130.42;108152;1254;61589;-63
2023/02/27 11:23:20;;;;;;;7.80;5.10;;;;;;;5.39;49.27;101133.06;108110;1258;73076;-63
2023/02/27 11:25:49;;;;;;;8.10;5.50;;;;;;;5.42;49.17;101130.77;108122;1254;73240;-64
2023/02/27 11:28:29;;;;;;;8.30;6.20;;;;;;;5.39;49.10;101132.58;108091;1259;73259;-64
2023/02/27 11:31:02;;;;;;;7.50;5.20;;;;;;;5.34;49.14;101140.09;108068;1255;61215;-64
2023/02/27 11:33:34;;;;;;;8.10;5.60;;;;;;;5.30;49.36;101143.53;108087;1254;61131;-64
2023/02/27 11:36:04;;;;;;;8.80;5.30;;;;;;;5.27;49.40;101143.13;108102;1254;75012;-63
2023/02/27 11:38:53;;;;;;;8.10;5.30;;;;;;;5.17;49.27;101145.59;108085;1254;73721;-64
2023/02/27 11:41:29;;;;;;;8.60;5.90;;;;;;;5.11;49.49;101146.49;108030;1254;73703;-63
2023/02/27 11:43:59;;;;;;;8.00;5.30;;;;;;;5.14;49.34;101147.96;108076;1255;61128;-64
2023/02/27 11:46:28;;;;;;;7.90;5.20;;;;;;;5.09;49.25;101143.89;108049;1256;61225;-63
2023/02/27 11:49:45;;;;;;;7.80;5.10;;;;;;;5.04;49.62;101141.00;108071;1256;74855;-64
2023/02/27 11:52:25;;;;;;;7.80;5.50;;;;;;;5.04;49.98;101140.16;108002;1255;73494;-63
2023/02/27 11:54:55;;;;;;;7.40;5.20;;;;;;;5.06;49.86;101140.52;107912;1259;73660;-64
2023/02/27 11:57:28;;;;;;;6.80;4.20;;;;;;;5.08;49.66;101143.48;108030;1254;59522;-64